Time;durP1;ratioP1;P1;durP2;ratioP2;P2;SDS_P1;SDS_P2;PMS_P1;PMS_P2;Temp;Humidity;BMP_temperature;BMP_pressure;BME280_temperature;BME280_humidity;BME280_pressure;Samples;Min_cycle;Max_cycle;Signal;HPM_P1;HPM_P2
2022/11/11 00:00:48;;;;;;;11.25;7.37;;;13.90;85.30;;;;;;10789331;33;20321;-76
2022/11/11 00:07:09;;;;;;;7.50;5.10;;;13.90;85.40;;;;;;10788672;33;20031;-76
2022/11/11 00:13:30;;;;;;;6.50;5.53;;;13.80;85.10;;;;;;10788288;33;20373;-76
2022/11/11 00:26:28;;;;;;;6.60;5.43;;;13.70;85.40;;;;;;10938253;32;20061;-76
2022/11/11 00:32:51;;;;;;;9.60;5.97;;;13.70;85.20;;;;;;10942154;32;20041;-76
2022/11/11 00:39:11;;;;;;;7.82;5.85;;;13.70;85.10;;;;;;10941766;32;20058;-76
2022/11/11 00:45:31;;;;;;;7.15;5.20;;;13.70;85.10;;;;;;10941287;32;20020;-76
2022/11/11 00:51:52;;;;;;;6.65;5.15;;;13.70;85.10;;;;;;10930192;32;20023;-76
2022/11/11 00:58:12;;;;;;;6.93;5.47;;;13.60;85.10;;;;;;10930310;32;20379;-76
2022/11/11 01:04:32;;;;;;;9.70;6.20;;;13.60;85.10;;;;;;10939494;32;20053;-76
2022/11/11 01:11:20;;;;;;;7.47;5.62;;;13.50;85.10;;;;;;10941897;32;20088;-78
2022/11/11 01:17:41;;;;;;;6.43;4.70;;;13.50;85.00;;;;;;10941170;32;20057;-76
2022/11/11 01:24:01;;;;;;;9.32;7.07;;;13.30;85.10;;;;;;10941064;32;20415;-76
2022/11/11 01:30:21;;;;;;;8.90;6.32;;;13.30;85.20;;;;;;10941082;32;20007;-76
2022/11/11 01:37:02;;;;;;;7.82;5.37;;;13.40;84.90;;;;;;10940268;32;20046;-77
2022/11/11 01:43:23;;;;;;;8.57;7.68;;;13.30;84.70;;;;;;10940738;32;20015;-76
2022/11/11 01:49:55;;;;;;;8.38;6.40;;;13.00;85.10;;;;;;10940428;32;20018;-76
2022/11/11 01:56:16;;;;;;;7.30;5.22;;;13.00;85.10;;;;;;10936368;32;20391;-76
2022/11/11 02:02:40;;;;;;;10.15;6.10;;;13.00;85.10;;;;;;10944009;32;20073;-76
2022/11/11 02:09:00;;;;;;;9.77;5.03;;;13.00;85.00;;;;;;10944738;32;20053;-77
2022/11/11 02:15:20;;;;;;;6.97;5.28;;;13.10;85.10;;;;;;10946782;32;20026;-76
2022/11/11 02:21:50;;;;;;;8.07;5.78;;;12.90;85.00;;;;;;10946626;32;20023;-76
2022/11/11 02:28:12;;;;;;;7.40;5.30;;;12.80;85.10;;;;;;10942513;32;20007;-77
2022/11/11 02:34:33;;;;;;;7.32;5.57;;;12.80;84.90;;;;;;10946271;32;20011;-76
2022/11/11 02:47:33;;;;;;;9.48;5.82;;;12.60;85.10;;;;;;10945726;32;20011;-77
2022/11/11 02:53:57;;;;;;;8.20;5.53;;;12.70;85.00;;;;;;10945589;32;20011;-77
2022/11/11 03:00:17;;;;;;;8.27;6.40;;;12.60;84.90;;;;;;10945373;32;20033;-77
2022/11/11 03:06:38;;;;;;;7.03;4.32;;;12.60;85.00;;;;;;10945084;32;20041;-76
2022/11/11 03:13:01;;;;;;;6.35;4.32;;;12.70;84.80;;;;;;10944526;32;20046;-77
2022/11/11 03:19:21;;;;;;;7.47;5.15;;;12.60;84.90;;;;;;10944551;32;20308;-77
2022/11/11 03:25:47;;;;;;;6.20;4.43;;;12.60;84.70;;;;;;10944302;32;20015;-77
2022/11/11 03:32:08;;;;;;;7.15;5.28;;;12.50;84.70;;;;;;10942873;32;20023;-76
2022/11/11 03:38:27;;;;;;;7.28;5.28;;;12.30;84.80;;;;;;10943927;32;20015;-77
2022/11/11 03:44:48;;;;;;;9.63;5.53;;;12.30;84.70;;;;;;10943731;32;20037;-77
2022/11/11 03:51:07;;;;;;;7.10;4.97;;;12.30;84.80;;;;;;10943502;32;20323;-77
2022/11/11 03:57:31;;;;;;;8.07;5.45;;;12.20;84.90;;;;;;10943240;32;20379;-77
2022/11/11 04:10:55;;;;;;;7.40;5.20;;;12.20;84.90;;;;;;10940685;32;20034;-77
2022/11/11 04:17:16;;;;;;;5.68;4.28;;;12.20;84.80;;;;;;10942540;32;20030;-77
2022/11/11 04:23:37;;;;;;;6.22;4.50;;;12.20;84.80;;;;;;10938845;32;20065;-77
2022/11/11 04:29:56;;;;;;;8.10;5.47;;;12.20;84.60;;;;;;10942285;32;20023;-77
2022/11/11 04:36:16;;;;;;;7.53;5.57;;;12.20;84.50;;;;;;10942057;32;20011;-77
2022/11/11 04:42:38;;;;;;;7.22;4.87;;;12.20;84.50;;;;;;10937658;32;20019;-77
2022/11/11 04:48:58;;;;;;;7.18;6.20;;;12.20;84.60;;;;;;10943507;32;20080;-77
2022/11/11 05:08:55;;;;;;;9.13;5.22;;;12.20;84.90;;;;;;10937140;32;20437;-77
2022/11/11 05:22:00;;;;;;;7.95;5.75;;;11.90;84.90;;;;;;10941196;32;20023;-77
2022/11/11 05:28:20;;;;;;;7.70;5.35;;;12.00;85.00;;;;;;10929611;32;20019;-77
2022/11/11 05:34:45;;;;;;;7.05;5.40;;;12.00;84.90;;;;;;10940422;32;20015;-77
2022/11/11 05:41:06;;;;;;;6.15;4.72;;;12.00;84.70;;;;;;10948028;32;20011;-77
2022/11/11 05:47:42;;;;;;;6.60;5.00;;;11.90;84.70;;;;;;10949034;32;20331;-77
2022/11/11 05:54:03;;;;;;;8.95;5.20;;;11.90;84.70;;;;;;10947692;32;20379;-77
2022/11/11 06:00:23;;;;;;;6.50;4.75;;;12.10;84.40;;;;;;10944765;32;20027;-77
2022/11/11 06:06:44;;;;;;;6.50;5.15;;;12.30;84.00;;;;;;10947197;32;20038;-77
2022/11/11 06:13:22;;;;;;;7.22;6.07;;;12.10;84.00;;;;;;10867204;32;20305;-77
2022/11/11 06:19:43;;;;;;;5.72;4.40;;;12.20;84.00;;;;;;10867366;32;20054;-77
2022/11/11 06:26:13;;;;;;;7.60;5.65;;;12.10;84.10;;;;;;10865422;32;20016;-77
2022/11/11 06:32:33;;;;;;;5.55;3.83;;;12.10;84.20;;;;;;10866954;32;20004;-77
2022/11/11 06:38:53;;;;;;;6.22;4.70;;;12.20;83.90;;;;;;10866668;32;20046;-77
2022/11/11 06:45:16;;;;;;;6.95;5.57;;;12.20;83.80;;;;;;10852736;32;20043;-77
2022/11/11 06:51:36;;;;;;;7.82;5.82;;;12.00;84.20;;;;;;10941418;32;20019;-77
2022/11/11 06:58:04;;;;;;;13.70;6.90;;;12.20;84.10;;;;;;10945187;32;20007;-77
2022/11/11 07:04:24;;;;;;;8.38;6.57;;;12.40;83.80;;;;;;10933199;32;20014;-77
2022/11/11 07:10:51;;;;;;;7.93;5.87;;;12.80;83.90;;;;;;10935631;32;20023;-77
2022/11/11 07:17:12;;;;;;;8.95;6.62;;;12.90;83.50;;;;;;10901813;32;20015;-77
2022/11/11 07:23:32;;;;;;;13.90;7.95;;;12.80;83.50;;;;;;10906395;32;20033;-77
2022/11/11 07:29:52;;;;;;;8.75;7.40;;;12.50;84.30;;;;;;10905745;32;20015;-77
2022/11/11 07:36:12;;;;;;;9.63;7.57;;;12.90;84.70;;;;;;10906430;32;20004;-76
2022/11/11 07:42:36;;;;;;;6.87;5.85;;;13.30;84.50;;;;;;10905896;32;20042;-77
2022/11/11 07:48:56;;;;;;;9.15;6.70;;;13.50;84.20;;;;;;10905654;32;19999;-77
2022/11/11 07:55:27;;;;;;;8.00;6.30;;;13.20;84.40;;;;;;10905654;32;20041;-77
2022/11/11 08:01:48;;;;;;;9.20;7.43;;;13.30;85.10;;;;;;10905366;32;20461;-77
2022/11/11 08:08:09;;;;;;;8.35;6.22;;;13.50;85.00;;;;;;10904431;32;20093;-77
2022/11/11 08:14:29;;;;;;;9.05;6.35;;;13.70;85.30;;;;;;10904417;32;20011;-77
2022/11/11 08:20:50;;;;;;;8.98;6.93;;;13.80;85.40;;;;;;10547486;27;11962799;-77
2022/11/11 08:27:10;;;;;;;9.70;5.55;;;14.00;85.70;;;;;;10891094;32;20308;-77
2022/11/11 08:33:30;;;;;;;8.73;6.40;;;14.00;85.80;;;;;;10901452;32;20035;-77
2022/11/11 08:40:14;;;;;;;11.93;5.75;;;14.10;86.00;;;;;;10886311;32;20050;-77
2022/11/11 08:46:35;;;;;;;6.37;4.97;;;14.20;86.20;;;;;;10905857;32;20022;-77
2022/11/11 08:52:56;;;;;;;5.25;3.97;;;14.20;86.40;;;;;;10941625;32;20019;-77
2022/11/11 08:59:17;;;;;;;6.80;4.60;;;14.30;86.70;;;;;;10941775;32;20061;-77
2022/11/11 09:05:38;;;;;;;5.95;4.95;;;14.40;87.00;;;;;;10925826;32;20426;-76
2022/11/11 09:11:58;;;;;;;4.93;3.62;;;14.40;87.40;;;;;;10944088;32;20030;-76
2022/11/11 09:18:19;;;;;;;5.20;3.70;;;14.40;87.60;;;;;;10937352;32;20015;-76
2022/11/11 09:24:39;;;;;;;4.97;3.28;;;14.50;87.80;;;;;;10948522;32;20055;-76
2022/11/11 09:31:00;;;;;;;5.53;3.30;;;14.60;87.80;;;;;;10948345;32;20366;-77
2022/11/11 09:37:21;;;;;;;6.70;3.10;;;14.70;87.80;;;;;;10948271;32;20003;-76
2022/11/11 09:43:51;;;;;;;2.45;2.20;;;14.80;87.70;;;;;;10948040;32;20320;-75
2022/11/11 09:50:22;;;;;;;;;;;14.90;87.80;;;;;;10915132;32;20039;-75
2022/11/11 09:56:44;;;;;;;3.65;2.65;;;14.90;87.80;;;;;;10898043;32;19930;-75
2022/11/11 10:03:38;;;;;;;2.40;2.20;;;15.10;88.00;;;;;;10910063;32;20019;-75
2022/11/11 10:10:12;;;;;;;5.60;3.22;;;15.20;88.00;;;;;;10909378;32;20019;-75
2022/11/11 10:16:59;;;;;;;3.95;2.87;;;15.30;87.90;;;;;;10909258;32;20046;-76
2022/11/11 10:23:25;;;;;;;3.40;2.70;;;15.40;88.00;;;;;;10907590;32;20050;-76
2022/11/11 10:29:46;;;;;;;2.08;1.75;;;15.50;88.00;;;;;;10908463;32;20293;-75
2022/11/11 10:36:15;;;;;;;3.42;2.20;;;15.60;87.80;;;;;;10908125;32;20042;-75
2022/11/11 10:42:36;;;;;;;2.25;1.92;;;15.70;87.70;;;;;;10907991;32;20016;-75
2022/11/11 10:49:02;;;;;;;3.30;2.30;;;15.90;87.70;;;;;;10917157;32;20031;-75
2022/11/11 10:55:35;;;;;;;3.62;2.50;;;16.00;87.60;;;;;;10943099;32;20027;-75
2022/11/11 11:02:00;;;;;;;3.03;1.87;;;16.00;87.50;;;;;;10933377;32;20037;-75
2022/11/11 11:08:25;;;;;;;2.95;2.10;;;16.20;87.40;;;;;;10928610;32;20289;-76
2022/11/11 11:14:51;;;;;;;3.28;2.00;;;16.30;87.40;;;;;;10895245;32;20050;-76
2022/11/11 11:21:13;;;;;;;2.58;1.60;;;16.50;87.10;;;;;;10902646;32;20023;-75
2022/11/11 11:27:33;;;;;;;3.15;1.65;;;16.50;86.90;;;;;;10906358;32;20064;-75
2022/11/11 11:33:56;;;;;;;1.98;1.50;;;16.60;87.00;;;;;;10902601;32;20020;-75
2022/11/11 11:40:17;;;;;;;3.25;1.75;;;16.60;87.30;;;;;;10906138;32;20404;-75
2022/11/11 11:46:41;;;;;;;4.20;2.08;;;16.50;87.30;;;;;;10894337;32;20027;-76
2022/11/11 11:53:25;;;;;;;2.15;1.52;;;16.50;87.20;;;;;;10893840;32;20031;-76
2022/11/11 11:59:49;;;;;;;1.50;1.23;;;16.50;87.50;;;;;;10904938;32;20027;-75
2022/11/11 12:06:36;;;;;;;1.10;1.00;;;16.60;87.50;;;;;;10906608;32;20336;-76
2022/11/11 12:13:12;;;;;;;2.17;1.40;;;16.60;87.40;;;;;;10938844;32;20027;-76
2022/11/11 12:19:40;;;;;;;2.15;1.60;;;16.60;87.60;;;;;;10941893;32;20379;-76
2022/11/11 12:26:18;;;;;;;2.70;1.52;;;16.70;87.70;;;;;;10941934;32;20066;-76
2022/11/11 12:33:00;;;;;;;1.98;1.60;;;16.80;87.70;;;;;;10942406;32;20045;-76
2022/11/11 12:39:38;;;;;;;2.55;1.50;;;16.80;87.60;;;;;;10942257;32;20061;-76
2022/11/11 12:46:13;;;;;;;1.40;1.30;;;16.80;87.90;;;;;;10941385;32;20395;-76
2022/11/11 12:52:33;;;;;;;1.15;0.95;;;16.80;87.70;;;;;;10940937;32;20327;-76
2022/11/11 12:59:19;;;;;;;1.40;1.30;;;16.80;88.00;;;;;;10941858;32;20012;-77
2022/11/11 13:06:04;;;;;;;1.15;1.05;;;17.00;87.80;;;;;;10937283;32;20073;-76
2022/11/11 13:12:38;;;;;;;2.17;1.30;;;17.00;87.60;;;;;;10941446;32;20297;-76
2022/11/11 13:19:13;;;;;;;1.45;1.35;;;17.00;87.90;;;;;;10937990;32;20041;-76
2022/11/11 13:25:38;;;;;;;1.85;1.40;;;17.00;87.80;;;;;;10941073;32;20034;-76
2022/11/11 13:32:03;;;;;;;3.10;1.70;;;17.00;88.00;;;;;;10941096;32;20058;-76
2022/11/11 13:38:45;;;;;;;1.30;1.20;;;17.10;87.90;;;;;;10940881;32;20011;-76
2022/11/11 13:45:49;;;;;;;1.40;1.27;;;17.00;88.20;;;;;;10941643;32;20042;-76
2022/11/11 13:52:54;;;;;;;1.95;1.27;;;17.20;88.20;;;;;;10929094;32;20051;-76
2022/11/11 13:59:23;;;;;;;1.00;1.00;;;17.20;88.10;;;;;;10745058;33;20012;-76
2022/11/11 14:05:44;;;;;;;1.10;1.00;;;17.20;88.40;;;;;;10757729;33;20084;-76
2022/11/11 14:12:22;;;;;;;1.17;1.08;;;17.10;88.60;;;;;;10757104;33;20036;-76
2022/11/11 14:18:42;;;;;;;1.10;0.98;;;17.00;88.60;;;;;;10757294;33;20378;-76
2022/11/11 14:25:25;;;;;;;1.35;1.10;;;17.00;88.70;;;;;;10756613;33;20029;-76
2022/11/11 14:31:56;;;;;;;2.37;1.08;;;17.00;88.90;;;;;;10808554;32;20054;-76
2022/11/11 14:38:48;;;;;;;1.45;1.33;;;17.00;88.90;;;;;;10925940;32;20042;-76
2022/11/11 14:45:30;;;;;;;3.75;1.92;;;17.00;89.00;;;;;;10945345;32;20031;-76
2022/11/11 14:51:57;;;;;;;1.35;1.25;;;17.00;89.10;;;;;;10901149;32;20481;-76
2022/11/11 14:58:20;;;;;;;1.25;1.10;;;16.90;89.20;;;;;;10907826;32;20015;-76
2022/11/11 15:04:41;;;;;;;1.80;1.37;;;16.80;89.30;;;;;;10907115;32;20039;-76
2022/11/11 15:11:37;;;;;;;6.03;1.83;;;16.70;89.50;;;;;;10904829;32;20049;-76
2022/11/11 15:18:15;;;;;;;1.55;1.35;;;16.60;89.60;;;;;;10907304;32;20016;-77
2022/11/11 15:24:44;;;;;;;4.60;2.33;;;16.50;89.80;;;;;;10902880;32;20041;-76
2022/11/11 15:31:46;;;;;;;5.65;3.45;;;16.40;90.00;;;;;;10895213;32;20046;-76
2022/11/11 15:38:21;;;;;;;3.03;2.42;;;16.40;90.00;;;;;;10902527;32;20035;-76
2022/11/11 15:44:42;;;;;;;3.80;3.12;;;16.30;90.00;;;;;;10904675;32;20385;-77
2022/11/11 15:51:29;;;;;;;5.20;3.72;;;16.20;90.10;;;;;;10906001;32;20015;-76
2022/11/11 15:57:49;;;;;;;6.03;4.10;;;16.10;90.20;;;;;;10905866;32;20037;-77
2022/11/11 16:04:15;;;;;;;4.32;3.50;;;16.00;90.10;;;;;;10905448;32;20015;-76
2022/11/11 16:10:40;;;;;;;7.40;5.03;;;16.00;90.20;;;;;;10893722;32;20011;-76
2022/11/11 16:17:03;;;;;;;6.18;4.47;;;16.00;90.30;;;;;;10893481;32;20396;-74
2022/11/11 16:23:24;;;;;;;8.95;5.45;;;15.90;90.00;;;;;;10881285;27;20066;-74
2022/11/11 16:29:44;;;;;;;8.63;5.40;;;15.80;90.10;;;;;;10862135;32;20389;-74
2022/11/11 16:36:10;;;;;;;7.47;5.70;;;15.80;90.10;;;;;;10861784;32;20027;-74
2022/11/11 16:42:30;;;;;;;10.63;6.55;;;15.70;90.00;;;;;;10861702;32;20422;-74
2022/11/11 16:48:52;;;;;;;9.07;8.10;;;15.50;90.10;;;;;;10859031;32;20373;-74
2022/11/11 16:55:51;;;;;;;15.27;9.80;;;15.30;90.10;;;;;;10861252;32;20046;-74
2022/11/11 17:02:19;;;;;;;10.70;7.15;;;15.40;90.00;;;;;;10745976;32;20083;-74
2022/11/11 17:08:44;;;;;;;10.60;8.63;;;15.50;89.70;;;;;;10728016;32;20037;-74
2022/11/11 17:15:07;;;;;;;10.57;9.13;;;15.50;89.50;;;;;;10710362;32;20055;-74
2022/11/11 17:21:29;;;;;;;12.60;9.90;;;15.50;89.40;;;;;;10699966;33;20056;-74
2022/11/11 17:28:12;;;;;;;14.75;10.05;;;15.30;89.20;;;;;;10784237;33;20056;-74
2022/11/11 17:34:38;;;;;;;11.30;8.48;;;15.30;89.10;;;;;;10680310;33;20017;-74
2022/11/11 17:41:00;;;;;;;11.77;9.52;;;15.30;89.10;;;;;;10680164;33;20417;-74
2022/11/11 17:47:23;;;;;;;28.77;19.40;;;15.20;89.00;;;;;;10670117;33;20034;-74
2022/11/11 17:53:44;;;;;;;25.95;18.23;;;15.10;88.80;;;;;;10678518;33;20033;-74
2022/11/11 18:00:11;;;;;;;24.40;14.65;;;15.10;88.70;;;;;;10679592;33;20061;-74
2022/11/11 18:06:32;;;;;;;20.33;16.50;;;15.00;88.50;;;;;;10841182;32;20031;-74
2022/11/11 18:12:52;;;;;;;46.88;36.38;;;14.90;88.40;;;;;;10865366;32;20308;-74
2022/11/11 18:19:18;;;;;;;27.52;22.85;;;14.80;88.30;;;;;;10865190;32;20024;-74
2022/11/11 18:25:40;;;;;;;24.63;21.98;;;14.80;88.00;;;;;;10864942;32;20057;-74
2022/11/11 18:32:01;;;;;;;24.85;20.92;;;14.70;87.90;;;;;;10861224;32;20050;-73
2022/11/11 18:38:22;;;;;;;30.55;23.50;;;14.70;87.90;;;;;;10861144;32;20046;-73
2022/11/11 18:44:42;;;;;;;22.92;19.25;;;14.60;87.80;;;;;;10864270;32;20042;-74
2022/11/11 18:51:03;;;;;;;18.95;16.95;;;14.60;87.70;;;;;;10864739;32;20008;-74
2022/11/11 18:57:23;;;;;;;21.98;17.58;;;14.50;87.60;;;;;;10864353;32;20019;-74
2022/11/11 19:03:43;;;;;;;15.68;13.48;;;14.30;87.80;;;;;;10864318;32;20050;-74
2022/11/11 19:10:04;;;;;;;22.98;18.23;;;14.40;87.70;;;;;;10859299;32;20066;-74
2022/11/11 19:16:25;;;;;;;23.15;18.52;;;14.40;87.60;;;;;;10826868;33;20059;-74
2022/11/11 19:22:45;;;;;;;19.27;15.30;;;14.40;87.50;;;;;;10826945;33;20039;-74
2022/11/11 19:29:05;;;;;;;19.23;14.05;;;14.40;87.40;;;;;;10826499;33;20025;-74
2022/11/11 19:35:26;;;;;;;18.02;14.35;;;14.30;87.20;;;;;;10821748;32;20028;-74
2022/11/11 19:41:46;;;;;;;19.37;13.95;;;14.20;87.20;;;;;;10826210;33;20035;-75
2022/11/11 19:48:06;;;;;;;18.80;13.60;;;14.20;87.20;;;;;;10825882;33;20388;-75
2022/11/11 19:54:26;;;;;;;14.23;10.88;;;14.00;87.50;;;;;;10825668;32;20321;-75
2022/11/11 20:00:47;;;;;;;12.48;10.40;;;14.00;87.50;;;;;;10825698;32;20024;-74
2022/11/11 20:07:08;;;;;;;15.05;12.93;;;13.70;87.60;;;;;;10824647;33;20389;-74
2022/11/11 20:13:28;;;;;;;14.68;13.18;;;13.70;87.80;;;;;;10825224;33;20058;-74
2022/11/11 20:19:49;;;;;;;18.60;15.40;;;13.60;87.60;;;;;;10825198;33;20035;-74
2022/11/11 20:26:11;;;;;;;17.48;14.80;;;13.50;87.90;;;;;;10821052;33;20025;-74
2022/11/11 20:32:31;;;;;;;15.75;12.02;;;13.70;87.70;;;;;;10832669;32;20051;-74
2022/11/11 20:38:51;;;;;;;22.98;18.55;;;13.70;87.50;;;;;;10860880;32;20055;-74
2022/11/11 20:45:13;;;;;;;17.23;14.75;;;13.60;87.60;;;;;;10861308;32;20047;-74
2022/11/11 20:51:40;;;;;;;16.65;14.63;;;13.60;87.50;;;;;;10861221;32;20024;-75
2022/11/11 20:58:00;;;;;;;18.15;14.40;;;13.60;87.50;;;;;;10861166;32;20042;-77
2022/11/11 21:04:20;;;;;;;17.73;15.88;;;13.70;87.30;;;;;;10863147;32;20019;-77
2022/11/11 21:10:40;;;;;;;20.88;18.27;;;13.70;87.30;;;;;;10867198;32;20153;-77
2022/11/11 21:17:17;;;;;;;18.92;15.32;;;13.70;87.50;;;;;;10867432;32;20320;-77
2022/11/11 21:23:37;;;;;;;18.80;14.77;;;13.70;87.20;;;;;;10866371;32;20020;-77
2022/11/11 21:29:58;;;;;;;17.87;14.20;;;13.60;87.00;;;;;;10861731;32;20023;-77
2022/11/11 21:36:20;;;;;;;15.88;14.23;;;13.40;87.00;;;;;;10865554;32;20039;-77
2022/11/11 21:42:41;;;;;;;17.67;15.80;;;13.30;87.30;;;;;;10833000;32;20012;-77
2022/11/11 21:49:03;;;;;;;17.12;13.73;;;13.30;86.90;;;;;;10829614;33;20032;-77
2022/11/11 21:55:23;;;;;;;17.27;13.82;;;13.50;86.80;;;;;;10828768;33;20016;-77
2022/11/11 22:01:45;;;;;;;17.98;15.70;;;13.40;86.70;;;;;;10829330;32;20306;-77
2022/11/11 22:08:05;;;;;;;17.25;15.52;;;13.20;86.70;;;;;;10825756;33;20412;-77
2022/11/11 22:14:25;;;;;;;18.58;14.80;;;13.30;86.60;;;;;;10828143;32;20017;-77
2022/11/11 22:20:52;;;;;;;14.45;12.95;;;13.30;86.20;;;;;;10828680;32;20023;-77
2022/11/11 22:27:12;;;;;;;17.92;13.75;;;13.30;86.10;;;;;;10828971;33;20043;-77
2022/11/11 22:33:32;;;;;;;14.48;11.80;;;13.20;86.20;;;;;;10828342;33;20028;-77
2022/11/11 22:39:52;;;;;;;18.83;12.57;;;13.20;86.10;;;;;;11000308;32;20006;-77
2022/11/11 22:46:15;;;;;;;21.05;18.33;;;13.20;85.90;;;;;;11021871;32;20026;-77
2022/11/11 22:52:35;;;;;;;15.00;12.43;;;13.20;85.70;;;;;;11021633;32;20033;-77
2022/11/11 22:58:56;;;;;;;16.15;14.45;;;13.10;85.70;;;;;;11021389;32;20011;-77
2022/11/11 23:05:16;;;;;;;15.82;11.25;;;13.00;85.80;;;;;;11016931;32;20022;-77
2022/11/11 23:11:39;;;;;;;15.80;12.95;;;12.90;85.90;;;;;;11020932;32;20428;-77
2022/11/11 23:18:02;;;;;;;16.23;14.43;;;12.90;85.90;;;;;;11017707;32;20068;-77
2022/11/11 23:24:22;;;;;;;22.77;19.27;;;12.80;85.70;;;;;;11020324;32;20054;-77
2022/11/11 23:30:43;;;;;;;16.10;14.50;;;12.80;85.80;;;;;;11004283;32;20407;-77
2022/11/11 23:37:03;;;;;;;19.27;14.57;;;12.70;85.70;;;;;;11019900;32;20030;-77
2022/11/11 23:43:24;;;;;;;18.55;15.63;;;12.80;85.60;;;;;;11019675;32;20049;-77
2022/11/11 23:49:46;;;;;;;12.63;10.95;;;12.80;85.40;;;;;;11018705;32;20049;-77
2022/11/11 23:56:06;;;;;;;20.42;12.07;;;12.60;85.40;;;;;;11007853;32;20007;-77
